sensor_id;sensor_type;location;lat;lon;timestamp;pressure;altitude;pressure_sealevel;temperature;humidity
20889;BME280;10604;51.976;7.594;2023-05-10T00:01:14;99981.59;;;18.29;81.42
20889;BME280;10604;51.976;7.594;2023-05-10T00:03:39;99983.41;;;18.53;81.06
20889;BME280;10604;51.976;7.594;2023-05-10T00:06:05;99974.84;;;18.36;81.03
20889;BME280;10604;51.976;7.594;2023-05-10T00:08:30;99974.78;;;18.25;82.51
20889;BME280;10604;51.976;7.594;2023-05-10T00:10:56;99967.50;;;18.27;81.68
20889;BME280;10604;51.976;7.594;2023-05-10T00:13:21;99969.19;;;18.28;82.00
20889;BME280;10604;51.976;7.594;2023-05-10T00:15:46;99970.34;;;18.13;82.45
20889;BME280;10604;51.976;7.594;2023-05-10T00:18:12;99967.28;;;18.30;81.96
20889;BME280;10604;51.976;7.594;2023-05-10T00:20:37;99975.28;;;18.30;81.89
20889;BME280;10604;51.976;7.594;2023-05-10T00:23:02;99968.19;;;18.18;81.95
20889;BME280;10604;51.976;7.594;2023-05-10T00:25:27;99962.16;;;18.27;82.24
20889;BME280;10604;51.976;7.594;2023-05-10T00:27:53;99969.31;;;18.51;80.85
20889;BME280;10604;51.976;7.594;2023-05-10T00:30:20;99962.84;;;18.66;80.41
20889;BME280;10604;51.976;7.594;2023-05-10T00:32:45;99970.00;;;18.42;81.35
20889;BME280;10604;51.976;7.594;2023-05-10T00:35:10;99964.66;;;18.42;81.46
20889;BME280;10604;51.976;7.594;2023-05-10T00:37:36;99954.56;;;18.58;80.92
20889;BME280;10604;51.976;7.594;2023-05-10T00:40:01;99958.69;;;18.38;81.38
20889;BME280;10604;51.976;7.594;2023-05-10T00:42:26;99960.69;;;18.23;81.17
20889;BME280;10604;51.976;7.594;2023-05-10T00:44:51;99962.41;;;18.24;81.33
20889;BME280;10604;51.976;7.594;2023-05-10T00:47:17;99958.63;;;18.51;80.58
20889;BME280;10604;51.976;7.594;2023-05-10T00:49:42;99959.09;;;18.45;80.77
20889;BME280;10604;51.976;7.594;2023-05-10T00:52:08;99951.00;;;18.33;80.89
20889;BME280;10604;51.976;7.594;2023-05-10T00:54:34;99954.88;;;18.29;80.81
20889;BME280;10604;51.976;7.594;2023-05-10T00:56:59;99957.72;;;18.15;81.05
20889;BME280;10604;51.976;7.594;2023-05-10T00:59:24;99962.41;;;18.24;81.45
20889;BME280;10604;51.976;7.594;2023-05-10T01:01:50;99963.84;;;18.52;80.32
20889;BME280;10604;51.976;7.594;2023-05-10T01:04:17;99962.50;;;18.47;80.12
20889;BME280;10604;51.976;7.594;2023-05-10T01:06:45;99954.81;;;18.42;80.28
20889;BME280;10604;51.976;7.594;2023-05-10T01:09:10;99960.91;;;18.20;80.95
20889;BME280;10604;51.976;7.594;2023-05-10T01:11:36;99961.00;;;18.43;80.64
20889;BME280;10604;51.976;7.594;2023-05-10T01:14:03;99955.09;;;18.26;81.42
20889;BME280;10604;51.976;7.594;2023-05-10T01:16:29;99961.47;;;18.36;80.25
20889;BME280;10604;51.976;7.594;2023-05-10T01:18:56;99959.56;;;18.38;80.45
20889;BME280;10604;51.976;7.594;2023-05-10T01:21:33;99957.38;;;18.44;80.41
20889;BME280;10604;51.976;7.594;2023-05-10T01:26:53;99963.34;;;18.47;80.30
20889;BME280;10604;51.976;7.594;2023-05-10T01:34:41;99969.25;;;18.16;81.32
20889;BME280;10604;51.976;7.594;2023-05-10T01:37:13;99972.84;;;18.27;81.05
20889;BME280;10604;51.976;7.594;2023-05-10T01:39:44;99967.63;;;18.02;81.56
20889;BME280;10604;51.976;7.594;2023-05-10T01:42:11;99974.59;;;18.16;81.32
20889;BME280;10604;51.976;7.594;2023-05-10T01:44:40;99969.06;;;18.06;81.39
20889;BME280;10604;51.976;7.594;2023-05-10T01:47:11;99967.00;;;17.86;81.49
20889;BME280;10604;51.976;7.594;2023-05-10T01:49:45;99969.38;;;18.14;80.65
20889;BME280;10604;51.976;7.594;2023-05-10T01:52:13;99972.94;;;18.02;80.88
20889;BME280;10604;51.976;7.594;2023-05-10T01:54:41;99975.50;;;18.04;80.78
20889;BME280;10604;51.976;7.594;2023-05-10T01:57:08;99979.53;;;18.09;81.35
20889;BME280;10604;51.976;7.594;2023-05-10T01:59:35;99975.94;;;17.61;82.29
20889;BME280;10604;51.976;7.594;2023-05-10T02:02:04;99983.59;;;17.66;81.78
20889;BME280;10604;51.976;7.594;2023-05-10T02:04:30;99984.59;;;17.39;81.42
20889;BME280;10604;51.976;7.594;2023-05-10T02:06:56;99982.03;;;17.25;81.31
20889;BME280;10604;51.976;7.594;2023-05-10T02:09:22;99988.19;;;17.13;82.26
20889;BME280;10604;51.976;7.594;2023-05-10T02:11:49;99994.81;;;17.20;81.49
20889;BME280;10604;51.976;7.594;2023-05-10T02:14:15;99999.31;;;17.32;81.62
20889;BME280;10604;51.976;7.594;2023-05-10T02:16:40;99993.94;;;17.19;81.79
20889;BME280;10604;51.976;7.594;2023-05-10T02:19:06;100003.78;;;17.19;80.61
20889;BME280;10604;51.976;7.594;2023-05-10T02:21:33;100007.19;;;17.21;80.86
20889;BME280;10604;51.976;7.594;2023-05-10T02:23:59;100011.97;;;17.29;81.03
20889;BME280;10604;51.976;7.594;2023-05-10T02:26:24;100010.50;;;17.25;80.66
20889;BME280;10604;51.976;7.594;2023-05-10T02:28:51;100011.44;;;17.23;80.62
20889;BME280;10604;51.976;7.594;2023-05-10T02:31:17;100021.25;;;17.23;80.56
20889;BME280;10604;51.976;7.594;2023-05-10T02:33:43;100017.41;;;17.27;80.75
20889;BME280;10604;51.976;7.594;2023-05-10T02:36:09;100015.72;;;17.26;80.52
20889;BME280;10604;51.976;7.594;2023-05-10T02:38:35;100032.25;;;17.18;80.43
20889;BME280;10604;51.976;7.594;2023-05-10T02:41:01;100022.88;;;17.38;80.06
20889;BME280;10604;51.976;7.594;2023-05-10T02:43:27;100024.88;;;17.22;80.33
20889;BME280;10604;51.976;7.594;2023-05-10T02:45:54;100014.22;;;17.35;79.96
20889;BME280;10604;51.976;7.594;2023-05-10T02:48:20;100017.84;;;17.08;80.77
20889;BME280;10604;51.976;7.594;2023-05-10T02:50:45;100024.88;;;16.97;80.79
20889;BME280;10604;51.976;7.594;2023-05-10T02:53:18;100021.47;;;17.20;80.62
20889;BME280;10604;51.976;7.594;2023-05-10T02:55:46;100026.34;;;17.13;80.46
20889;BME280;10604;51.976;7.594;2023-05-10T02:58:14;100015.16;;;17.21;80.17
20889;BME280;10604;51.976;7.594;2023-05-10T03:00:39;100023.50;;;17.29;79.55
20889;BME280;10604;51.976;7.594;2023-05-10T03:03:04;100018.16;;;17.42;79.69
20889;BME280;10604;51.976;7.594;2023-05-10T03:05:30;100021.91;;;17.39;79.49
20889;BME280;10604;51.976;7.594;2023-05-10T03:07:55;100018.91;;;17.31;79.75
20889;BME280;10604;51.976;7.594;2023-05-10T03:10:22;100021.78;;;17.41;79.38
20889;BME280;10604;51.976;7.594;2023-05-10T03:13:34;100021.47;;;17.20;80.06
20889;BME280;10604;51.976;7.594;2023-05-10T03:18:25;100024.69;;;17.25;79.86
20889;BME280;10604;51.976;7.594;2023-05-10T03:20:56;100028.69;;;16.93;80.93
20889;BME280;10604;51.976;7.594;2023-05-10T03:25:54;100032.34;;;17.17;80.21
20889;BME280;10604;51.976;7.594;2023-05-10T03:28:20;100044.16;;;17.13;80.52
20889;BME280;10604;51.976;7.594;2023-05-10T03:30:46;100042.38;;;17.26;79.50
20889;BME280;10604;51.976;7.594;2023-05-10T03:33:11;100038.97;;;17.24;80.09
20889;BME280;10604;51.976;7.594;2023-05-10T03:35:38;100042.56;;;17.10;80.35
20889;BME280;10604;51.976;7.594;2023-05-10T03:38:03;100051.75;;;17.19;80.20
20889;BME280;10604;51.976;7.594;2023-05-10T03:40:29;100053.44;;;17.20;79.99
20889;BME280;10604;51.976;7.594;2023-05-10T03:42:56;100051.63;;;17.08;80.50
20889;BME280;10604;51.976;7.594;2023-05-10T03:45:21;100048.53;;;17.14;80.41
20889;BME280;10604;51.976;7.594;2023-05-10T03:47:47;100054.28;;;17.20;80.26
20889;BME280;10604;51.976;7.594;2023-05-10T03:50:12;100057.47;;;17.13;80.03
20889;BME280;10604;51.976;7.594;2023-05-10T03:52:37;100051.28;;;17.00;80.45
20889;BME280;10604;51.976;7.594;2023-05-10T03:55:04;100061.66;;;17.17;79.77
20889;BME280;10604;51.976;7.594;2023-05-10T03:57:29;100070.94;;;17.24;79.94
20889;BME280;10604;51.976;7.594;2023-05-10T03:59:55;100066.38;;;17.26;79.73
20889;BME280;10604;51.976;7.594;2023-05-10T04:02:20;100069.66;;;17.17;80.00
20889;BME280;10604;51.976;7.594;2023-05-10T04:04:45;100074.38;;;17.26;79.72
20889;BME280;10604;51.976;7.594;2023-05-10T04:07:10;100073.94;;;17.32;79.18
20889;BME280;10604;51.976;7.594;2023-05-10T04:09:36;100073.63;;;17.37;79.28
20889;BME280;10604;51.976;7.594;2023-05-10T04:12:01;100079.03;;;17.10;80.38
20889;BME280;10604;51.976;7.594;2023-05-10T04:14:27;100081.81;;;17.21;80.11
20889;BME280;10604;51.976;7.594;2023-05-10T04:16:52;100088.44;;;17.28;79.97
20889;BME280;10604;51.976;7.594;2023-05-10T04:19:17;100077.16;;;17.37;79.32
20889;BME280;10604;51.976;7.594;2023-05-10T04:21:43;100076.06;;;17.27;79.70
20889;BME280;10604;51.976;7.594;2023-05-10T04:24:08;100074.69;;;17.34;79.72
20889;BME280;10604;51.976;7.594;2023-05-10T04:26:33;100071.38;;;17.18;80.32
20889;BME280;10604;51.976;7.594;2023-05-10T04:28:58;100080.88;;;17.35;79.66
20889;BME280;10604;51.976;7.594;2023-05-10T04:31:24;100076.72;;;17.43;79.98
20889;BME280;10604;51.976;7.594;2023-05-10T04:33:49;100077.94;;;17.65;79.13
20889;BME280;10604;51.976;7.594;2023-05-10T04:36:15;100073.31;;;17.54;78.87
20889;BME280;10604;51.976;7.594;2023-05-10T04:38:40;100068.41;;;17.60;78.97
20889;BME280;10604;51.976;7.594;2023-05-10T04:41:06;100088.03;;;17.59;78.87
20889;BME280;10604;51.976;7.594;2023-05-10T04:43:32;100080.13;;;17.58;79.12
20889;BME280;10604;51.976;7.594;2023-05-10T04:45:57;100089.94;;;17.57;78.87
20889;BME280;10604;51.976;7.594;2023-05-10T04:48:22;100086.78;;;17.78;78.62
20889;BME280;10604;51.976;7.594;2023-05-10T04:50:47;100089.75;;;17.60;78.79
20889;BME280;10604;51.976;7.594;2023-05-10T04:53:13;100091.06;;;17.68;78.46
20889;BME280;10604;51.976;7.594;2023-05-10T04:55:38;100096.16;;;17.71;78.53
20889;BME280;10604;51.976;7.594;2023-05-10T04:58:03;100092.97;;;17.66;78.54
20889;BME280;10604;51.976;7.594;2023-05-10T05:00:28;100103.88;;;17.75;78.92
20889;BME280;10604;51.976;7.594;2023-05-10T05:02:54;100105.94;;;17.57;79.31
20889;BME280;10604;51.976;7.594;2023-05-10T05:05:19;100105.19;;;17.30;79.86
20889;BME280;10604;51.976;7.594;2023-05-10T05:07:44;100107.25;;;17.65;79.36
20889;BME280;10604;51.976;7.594;2023-05-10T05:10:09;100109.50;;;17.83;78.66
20889;BME280;10604;51.976;7.594;2023-05-10T05:12:35;100110.13;;;17.99;78.21
20889;BME280;10604;51.976;7.594;2023-05-10T05:15:00;100122.00;;;17.83;78.49
20889;BME280;10604;51.976;7.594;2023-05-10T05:17:26;100115.59;;;17.73;78.72
20889;BME280;10604;51.976;7.594;2023-05-10T05:19:51;100111.75;;;18.02;78.00
20889;BME280;10604;51.976;7.594;2023-05-10T05:22:17;100114.94;;;17.94;78.43
20889;BME280;10604;51.976;7.594;2023-05-10T05:24:42;100118.72;;;18.28;77.74
20889;BME280;10604;51.976;7.594;2023-05-10T05:27:07;100115.97;;;18.05;77.97
20889;BME280;10604;51.976;7.594;2023-05-10T05:29:33;100118.78;;;17.78;78.81
20889;BME280;10604;51.976;7.594;2023-05-10T05:31:58;100119.44;;;17.81;78.85
20889;BME280;10604;51.976;7.594;2023-05-10T05:34:23;100126.69;;;17.67;79.43
20889;BME280;10604;51.976;7.594;2023-05-10T05:36:49;100124.97;;;17.91;79.11
20889;BME280;10604;51.976;7.594;2023-05-10T05:39:14;100132.66;;;17.95;78.88
20889;BME280;10604;51.976;7.594;2023-05-10T05:41:39;100133.97;;;17.90;79.06
20889;BME280;10604;51.976;7.594;2023-05-10T05:44:05;100136.06;;;17.85;79.76
20889;BME280;10604;51.976;7.594;2023-05-10T05:46:30;100138.84;;;17.71;79.96
20889;BME280;10604;51.976;7.594;2023-05-10T05:48:55;100132.22;;;17.64;80.44
20889;BME280;10604;51.976;7.594;2023-05-10T05:51:21;100136.38;;;18.18;79.29
20889;BME280;10604;51.976;7.594;2023-05-10T05:53:46;100130.75;;;18.10;79.35
20889;BME280;10604;51.976;7.594;2023-05-10T05:56:11;100130.69;;;18.35;78.31
20889;BME280;10604;51.976;7.594;2023-05-10T05:58:36;100134.28;;;18.60;77.99
20889;BME280;10604;51.976;7.594;2023-05-10T06:01:02;100139.34;;;18.26;77.96
20889;BME280;10604;51.976;7.594;2023-05-10T06:03:27;100139.63;;;18.60;76.97
20889;BME280;10604;51.976;7.594;2023-05-10T06:05:52;100142.34;;;18.71;77.07
20889;BME280;10604;51.976;7.594;2023-05-10T06:08:17;100139.63;;;18.60;76.59
20889;BME280;10604;51.976;7.594;2023-05-10T06:10:43;100153.38;;;18.66;76.80
20889;BME280;10604;51.976;7.594;2023-05-10T06:13:09;100163.34;;;18.52;76.88
20889;BME280;10604;51.976;7.594;2023-05-10T06:15:34;100156.63;;;18.33;77.98
20889;BME280;10604;51.976;7.594;2023-05-10T06:18:00;100146.09;;;18.32;78.08
20889;BME280;10604;51.976;7.594;2023-05-10T06:20:25;100149.84;;;18.04;78.21
20889;BME280;10604;51.976;7.594;2023-05-10T06:22:50;100156.34;;;18.25;77.94
20889;BME280;10604;51.976;7.594;2023-05-10T06:25:15;100151.59;;;18.42;78.19
20889;BME280;10604;51.976;7.594;2023-05-10T06:27:42;100159.66;;;17.91;79.10
20889;BME280;10604;51.976;7.594;2023-05-10T06:30:08;100163.59;;;18.23;78.67
20889;BME280;10604;51.976;7.594;2023-05-10T06:32:33;100172.38;;;18.25;78.65
20889;BME280;10604;51.976;7.594;2023-05-10T06:34:59;100170.84;;;18.47;78.20
20889;BME280;10604;51.976;7.594;2023-05-10T06:37:24;100180.59;;;18.22;78.46
20889;BME280;10604;51.976;7.594;2023-05-10T06:39:49;100183.88;;;18.38;78.06
20889;BME280;10604;51.976;7.594;2023-05-10T06:42:14;100186.88;;;18.47;77.50
20889;BME280;10604;51.976;7.594;2023-05-10T06:44:40;100175.34;;;18.21;77.77
20889;BME280;10604;51.976;7.594;2023-05-10T06:47:05;100174.78;;;18.54;77.76
20889;BME280;10604;51.976;7.594;2023-05-10T06:49:30;100180.13;;;18.54;77.93
20889;BME280;10604;51.976;7.594;2023-05-10T06:51:56;100184.28;;;18.58;77.38
20889;BME280;10604;51.976;7.594;2023-05-10T06:54:21;100187.31;;;18.15;78.89
20889;BME280;10604;51.976;7.594;2023-05-10T06:56:46;100186.00;;;18.33;78.71
20889;BME280;10604;51.976;7.594;2023-05-10T06:59:12;100184.56;;;18.04;79.31
20889;BME280;10604;51.976;7.594;2023-05-10T07:01:38;100180.06;;;17.92;80.28
20889;BME280;10604;51.976;7.594;2023-05-10T07:04:03;100177.72;;;18.00;79.73
20889;BME280;10604;51.976;7.594;2023-05-10T07:06:29;100175.78;;;18.02;80.15
20889;BME280;10604;51.976;7.594;2023-05-10T07:08:54;100181.53;;;18.21;79.60
20889;BME280;10604;51.976;7.594;2023-05-10T07:11:19;100185.59;;;18.39;78.98
20889;BME280;10604;51.976;7.594;2023-05-10T07:13:45;100192.41;;;18.56;79.16
20889;BME280;10604;51.976;7.594;2023-05-10T07:16:11;100195.78;;;18.71;77.89
20889;BME280;10604;51.976;7.594;2023-05-10T07:18:36;100195.72;;;18.60;78.23
20889;BME280;10604;51.976;7.594;2023-05-10T07:21:01;100195.84;;;18.46;78.98
20889;BME280;10604;51.976;7.594;2023-05-10T07:23:28;100204.06;;;18.43;78.54
20889;BME280;10604;51.976;7.594;2023-05-10T07:25:53;100215.84;;;18.89;78.19
20889;BME280;10604;51.976;7.594;2023-05-10T07:28:18;100211.22;;;18.91;77.26
20889;BME280;10604;51.976;7.594;2023-05-10T07:30:44;100215.00;;;18.76;76.92
20889;BME280;10604;51.976;7.594;2023-05-10T07:33:10;100213.53;;;18.72;77.48
20889;BME280;10604;51.976;7.594;2023-05-10T07:35:36;100217.72;;;19.71;75.28
20889;BME280;10604;51.976;7.594;2023-05-10T07:38:01;100223.19;;;20.16;74.04
20889;BME280;10604;51.976;7.594;2023-05-10T07:40:27;100214.94;;;20.41;73.53
20889;BME280;10604;51.976;7.594;2023-05-10T07:42:53;100217.31;;;20.11;71.72
20889;BME280;10604;51.976;7.594;2023-05-10T07:45:18;100215.97;;;19.94;73.66
20889;BME280;10604;51.976;7.594;2023-05-10T07:47:43;100210.31;;;20.54;72.72
20889;BME280;10604;51.976;7.594;2023-05-10T07:50:08;100223.72;;;20.65;70.36
20889;BME280;10604;51.976;7.594;2023-05-10T07:52:34;100222.25;;;20.39;71.47
20889;BME280;10604;51.976;7.594;2023-05-10T07:54:59;100217.31;;;21.00;69.57
20889;BME280;10604;51.976;7.594;2023-05-10T07:57:24;100217.66;;;20.52;68.74
20889;BME280;10604;51.976;7.594;2023-05-10T07:59:50;100208.88;;;21.59;67.66
20889;BME280;10604;51.976;7.594;2023-05-10T08:02:15;100211.47;;;22.02;67.95
20889;BME280;10604;51.976;7.594;2023-05-10T08:04:40;100209.19;;;22.58;66.15
20889;BME280;10604;51.976;7.594;2023-05-10T08:07:05;100206.25;;;23.11;64.05
20889;BME280;10604;51.976;7.594;2023-05-10T08:09:31;100213.13;;;21.29;64.84
20889;BME280;10604;51.976;7.594;2023-05-10T08:11:56;100213.94;;;21.94;66.98
20889;BME280;10604;51.976;7.594;2023-05-10T08:14:21;100214.75;;;22.36;66.03
20889;BME280;10604;51.976;7.594;2023-05-10T08:16:46;100221.72;;;22.17;65.20
20889;BME280;10604;51.976;7.594;2023-05-10T08:19:12;100225.19;;;21.67;64.40
20889;BME280;10604;51.976;7.594;2023-05-10T08:21:37;100222.09;;;21.51;66.29
20889;BME280;10604;51.976;7.594;2023-05-10T08:24:02;100226.81;;;21.15;64.42
20889;BME280;10604;51.976;7.594;2023-05-10T08:26:28;100226.09;;;21.24;66.53
20889;BME280;10604;51.976;7.594;2023-05-10T08:28:53;100236.66;;;22.10;64.18
20889;BME280;10604;51.976;7.594;2023-05-10T08:31:18;100237.59;;;22.20;62.20
20889;BME280;10604;51.976;7.594;2023-05-10T08:33:43;100222.69;;;21.96;62.20
20889;BME280;10604;51.976;7.594;2023-05-10T08:36:09;100234.31;;;22.47;63.00
20889;BME280;10604;51.976;7.594;2023-05-10T08:38:34;100229.72;;;22.29;62.79
20889;BME280;10604;51.976;7.594;2023-05-10T08:40:59;100230.28;;;23.02;60.73
20889;BME280;10604;51.976;7.594;2023-05-10T08:43:27;100242.72;;;22.23;59.87
20889;BME280;10604;51.976;7.594;2023-05-10T08:45:55;100235.78;;;22.61;60.71
20889;BME280;10604;51.976;7.594;2023-05-10T08:48:23;100238.91;;;23.56;59.51
20889;BME280;10604;51.976;7.594;2023-05-10T08:50:50;100248.53;;;23.97;58.65
20889;BME280;10604;51.976;7.594;2023-05-10T08:53:17;100241.63;;;22.96;59.02
20889;BME280;10604;51.976;7.594;2023-05-10T08:55:43;100244.59;;;23.03;61.14
20889;BME280;10604;51.976;7.594;2023-05-10T08:58:09;100249.63;;;22.77;58.37
20889;BME280;10604;51.976;7.594;2023-05-10T09:00:34;100250.16;;;23.01;59.93
20889;BME280;10604;51.976;7.594;2023-05-10T09:03:01;100248.34;;;23.31;59.56
20889;BME280;10604;51.976;7.594;2023-05-10T09:05:26;100259.03;;;23.80;56.85
20889;BME280;10604;51.976;7.594;2023-05-10T09:07:52;100253.66;;;23.61;58.06
20889;BME280;10604;51.976;7.594;2023-05-10T09:10:17;100261.16;;;23.67;56.28
20889;BME280;10604;51.976;7.594;2023-05-10T09:12:44;100267.13;;;24.00;55.34
20889;BME280;10604;51.976;7.594;2023-05-10T09:15:10;100255.06;;;24.97;53.80
20889;BME280;10604;51.976;7.594;2023-05-10T09:17:36;100257.56;;;25.08;49.49
20889;BME280;10604;51.976;7.594;2023-05-10T09:20:02;100268.16;;;24.45;51.69
20889;BME280;10604;51.976;7.594;2023-05-10T09:22:29;100261.72;;;23.80;54.67
20889;BME280;10604;51.976;7.594;2023-05-10T09:27:29;100267.16;;;25.65;51.81
20889;BME280;10604;51.976;7.594;2023-05-10T09:29:55;100260.50;;;25.60;52.10
20889;BME280;10604;51.976;7.594;2023-05-10T09:32:20;100276.59;;;26.23;50.41
20889;BME280;10604;51.976;7.594;2023-05-10T09:34:45;100270.47;;;25.77;48.51
20889;BME280;10604;51.976;7.594;2023-05-10T09:37:14;100277.16;;;24.36;52.30
20889;BME280;10604;51.976;7.594;2023-05-10T09:39:39;100280.41;;;24.11;51.38
20889;BME280;10604;51.976;7.594;2023-05-10T09:42:07;100274.19;;;24.10;52.97
20889;BME280;10604;51.976;7.594;2023-05-10T09:44:32;100283.72;;;23.57;51.85
20889;BME280;10604;51.976;7.594;2023-05-10T09:46:58;100282.00;;;24.04;52.19
20889;BME280;10604;51.976;7.594;2023-05-10T09:49:24;100288.53;;;24.21;52.96
20889;BME280;10604;51.976;7.594;2023-05-10T09:52:05;100284.28;;;24.08;53.03
20889;BME280;10604;51.976;7.594;2023-05-10T09:54:30;100287.94;;;24.17;53.98
20889;BME280;10604;51.976;7.594;2023-05-10T09:56:56;100275.50;;;23.77;53.88
20889;BME280;10604;51.976;7.594;2023-05-10T09:59:21;100284.56;;;23.86;55.55
20889;BME280;10604;51.976;7.594;2023-05-10T10:01:50;100282.84;;;24.04;53.07
20889;BME280;10604;51.976;7.594;2023-05-10T10:04:16;100285.13;;;25.12;52.05
20889;BME280;10604;51.976;7.594;2023-05-10T10:06:41;100282.31;;;26.20;50.00
20889;BME280;10604;51.976;7.594;2023-05-10T10:09:07;100288.19;;;26.33;46.71
20889;BME280;10604;51.976;7.594;2023-05-10T10:11:34;100288.34;;;25.43;48.38
20889;BME280;10604;51.976;7.594;2023-05-10T10:13:59;100288.53;;;23.92;52.32
20889;BME280;10604;51.976;7.594;2023-05-10T10:16:25;100288.81;;;23.00;54.26
20889;BME280;10604;51.976;7.594;2023-05-10T10:18:51;100281.75;;;23.19;54.54
20889;BME280;10604;51.976;7.594;2023-05-10T10:21:16;100285.91;;;23.23;55.61
20889;BME280;10604;51.976;7.594;2023-05-10T10:23:42;100284.25;;;23.60;55.13
20889;BME280;10604;51.976;7.594;2023-05-10T10:26:08;100293.06;;;24.01;54.42
20889;BME280;10604;51.976;7.594;2023-05-10T10:31:01;100291.16;;;24.96;49.76
20889;BME280;10604;51.976;7.594;2023-05-10T10:34:03;100293.19;;;25.84;48.58
20889;BME280;10604;51.976;7.594;2023-05-10T10:36:20;100289.94;;;25.98;45.84
20889;BME280;10604;51.976;7.594;2023-05-10T10:41:22;100290.06;;;25.79;47.87
20889;BME280;10604;51.976;7.594;2023-05-10T10:44:22;100287.94;;;25.38;48.03
20889;BME280;10604;51.976;7.594;2023-05-10T10:46:51;100289.47;;;25.67;49.83
20889;BME280;10604;51.976;7.594;2023-05-10T10:49:22;100293.13;;;25.49;47.47
20889;BME280;10604;51.976;7.594;2023-05-10T10:54:31;100293.06;;;25.13;47.05
20889;BME280;10604;51.976;7.594;2023-05-10T10:57:10;100297.06;;;25.09;48.45
20889;BME280;10604;51.976;7.594;2023-05-10T10:59:35;100276.16;;;26.09;45.67
20889;BME280;10604;51.976;7.594;2023-05-10T11:02:01;100284.94;;;27.15;45.88
20889;BME280;10604;51.976;7.594;2023-05-10T11:04:27;100292.06;;;25.42;45.94
20889;BME280;10604;51.976;7.594;2023-05-10T11:07:15;100297.16;;;24.90;48.83
20889;BME280;10604;51.976;7.594;2023-05-10T11:09:40;100292.16;;;25.67;48.67
20889;BME280;10604;51.976;7.594;2023-05-10T11:12:08;100295.47;;;26.15;46.65
20889;BME280;10604;51.976;7.594;2023-05-10T11:14:33;100301.78;;;26.93;47.17
20889;BME280;10604;51.976;7.594;2023-05-10T11:16:58;100301.50;;;26.08;47.12
20889;BME280;10604;51.976;7.594;2023-05-10T11:19:24;100296.19;;;25.63;47.96
20889;BME280;10604;51.976;7.594;2023-05-10T11:24:29;100298.72;;;25.65;47.05
20889;BME280;10604;51.976;7.594;2023-05-10T11:26:55;100317.34;;;24.76;50.35
20889;BME280;10604;51.976;7.594;2023-05-10T11:29:21;100309.00;;;23.35;53.12
20889;BME280;10604;51.976;7.594;2023-05-10T11:31:46;100321.28;;;21.84;61.71
20889;BME280;10604;51.976;7.594;2023-05-10T11:34:22;100329.19;;;22.17;62.21
20889;BME280;10604;51.976;7.594;2023-05-10T11:36:50;100325.50;;;22.60;63.01
20889;BME280;10604;51.976;7.594;2023-05-10T11:39:15;100317.63;;;22.38;62.12
20889;BME280;10604;51.976;7.594;2023-05-10T11:41:41;100310.47;;;22.99;61.56
20889;BME280;10604;51.976;7.594;2023-05-10T11:44:06;100320.53;;;22.76;61.15
20889;BME280;10604;51.976;7.594;2023-05-10T11:46:34;100322.72;;;22.41;59.47
20889;BME280;10604;51.976;7.594;2023-05-10T11:49:01;100315.03;;;23.18;60.60
20889;BME280;10604;51.976;7.594;2023-05-10T11:51:28;100322.63;;;22.93;59.24
20889;BME280;10604;51.976;7.594;2023-05-10T11:53:56;100326.81;;;24.05;57.41
20889;BME280;10604;51.976;7.594;2023-05-10T11:56:21;100328.81;;;23.84;56.39
20889;BME280;10604;51.976;7.594;2023-05-10T11:58:52;100334.09;;;23.35;58.73
20889;BME280;10604;51.976;7.594;2023-05-10T12:01:17;100340.13;;;23.58;56.33
20889;BME280;10604;51.976;7.594;2023-05-10T12:03:42;100337.13;;;23.12;57.98
20889;BME280;10604;51.976;7.594;2023-05-10T12:06:08;100335.75;;;23.27;58.43
20889;BME280;10604;51.976;7.594;2023-05-10T12:08:33;100343.69;;;22.67;57.05
20889;BME280;10604;51.976;7.594;2023-05-10T12:11:08;100348.19;;;22.67;57.62
20889;BME280;10604;51.976;7.594;2023-05-10T12:13:38;100357.72;;;22.92;59.94
20889;BME280;10604;51.976;7.594;2023-05-10T12:16:15;100354.72;;;23.16;58.88
20889;BME280;10604;51.976;7.594;2023-05-10T12:18:41;100356.16;;;23.69;57.33
20889;BME280;10604;51.976;7.594;2023-05-10T12:21:07;100353.59;;;23.58;55.98
20889;BME280;10604;51.976;7.594;2023-05-10T12:23:34;100352.38;;;24.01;55.34
20889;BME280;10604;51.976;7.594;2023-05-10T12:26:02;100355.91;;;24.30;53.41
20889;BME280;10604;51.976;7.594;2023-05-10T12:28:29;100355.97;;;25.23;51.38
20889;BME280;10604;51.976;7.594;2023-05-10T12:30:55;100345.25;;;24.57;49.72
20889;BME280;10604;51.976;7.594;2023-05-10T12:33:22;100359.13;;;24.63;54.54
20889;BME280;10604;51.976;7.594;2023-05-10T12:35:48;100356.44;;;25.09;50.31
20889;BME280;10604;51.976;7.594;2023-05-10T12:40:58;100365.41;;;23.86;51.73
20889;BME280;10604;51.976;7.594;2023-05-10T12:43:24;100366.22;;;23.67;52.52
20889;BME280;10604;51.976;7.594;2023-05-10T12:45:49;100359.88;;;23.38;53.79
20889;BME280;10604;51.976;7.594;2023-05-10T12:48:15;100358.56;;;23.23;55.00
20889;BME280;10604;51.976;7.594;2023-05-10T12:50:40;100367.00;;;22.78;54.04
20889;BME280;10604;51.976;7.594;2023-05-10T12:53:05;100368.97;;;22.76;54.38
20889;BME280;10604;51.976;7.594;2023-05-10T12:55:31;100368.72;;;22.79;54.97
20889;BME280;10604;51.976;7.594;2023-05-10T12:57:56;100365.53;;;23.35;54.34
20889;BME280;10604;51.976;7.594;2023-05-10T13:00:21;100369.91;;;23.76;53.32
20889;BME280;10604;51.976;7.594;2023-05-10T13:02:46;100369.06;;;23.95;52.78
20889;BME280;10604;51.976;7.594;2023-05-10T13:05:12;100368.28;;;24.42;51.65
20889;BME280;10604;51.976;7.594;2023-05-10T13:07:38;100364.47;;;24.82;50.49
20889;BME280;10604;51.976;7.594;2023-05-10T13:10:03;100366.00;;;24.28;50.03
20889;BME280;10604;51.976;7.594;2023-05-10T13:12:28;100363.88;;;25.07;50.08
20889;BME280;10604;51.976;7.594;2023-05-10T13:14:54;100357.53;;;25.98;48.07
20889;BME280;10604;51.976;7.594;2023-05-10T13:17:19;100360.25;;;26.34;45.43